Metal, Pennsylvania
Current Conditions -  °F | °C
As of 9:11 PM on Thursday 18 Dec 2014 (Local Time) from KHGR Reporting Station
Scattered Clouds Scattered Clouds  
Wind Chill: 24°   Ceiling: Unl
Heat Index: 33°   Visibility: 10mi
Dew Point: 22°   Wind: 12mph
Humidity: 64%   Direction: 300°WNW
Pressure: 30.09"   Gusts: NA
Location:  39.9814°N, 77.8809°W
Report Text: KHGR 190211Z 30010KT 10SM SCT028 01/M06 A3009 RMK AO2 T00061056
Loading
Personal Weather Stations






























Interactive Weather Map New forecast layout! Learn more

10-Day Weather Forecast

Advertisements
Track Severe Weather on mobile